createdAt,value
2018-09-16T00:00:02.500Z,1027.14
2018-09-16T00:01:02.500Z,1027.18
2018-09-16T00:02:02.581Z,1027.11
2018-09-16T00:03:02.614Z,1027.15
2018-09-16T00:04:02.490Z,1027.09
2018-09-16T00:05:02.478Z,1027.1
2018-09-16T00:06:02.474Z,1027.1
2018-09-16T00:07:02.458Z,1027.07
2018-09-16T00:08:02.528Z,1027.04
2018-09-16T00:09:02.504Z,1027.08
2018-09-16T00:10:02.630Z,1027.08
2018-09-16T00:11:02.498Z,1027.06
2018-09-16T00:12:02.677Z,1027.05
2018-09-16T00:13:02.467Z,1027.07
2018-09-16T00:14:02.704Z,1027.12
2018-09-16T00:15:02.457Z,1027.1
2018-09-16T00:16:03.536Z,1027.08
2018-09-16T00:17:02.455Z,1027.11
2018-09-16T00:18:02.452Z,1027.05
2018-09-16T00:19:02.560Z,1027.04
2018-09-16T00:20:02.484Z,1027.05
2018-09-16T00:21:02.615Z,1027.05
2018-09-16T00:22:02.452Z,1027.05
2018-09-16T00:23:02.490Z,1027
2018-09-16T00:24:02.684Z,1027.02
2018-09-16T00:25:02.462Z,1027.01
2018-09-16T00:26:02.560Z,1027.04
2018-09-16T00:27:02.558Z,1027.02
2018-09-16T00:28:02.482Z,1027.04
2018-09-16T00:29:02.503Z,1027.1
2018-09-16T00:30:02.513Z,1027.03
2018-09-16T00:31:02.714Z,1027.07
2018-09-16T00:32:02.673Z,1027.08
2018-09-16T00:33:02.660Z,1027.06
2018-09-16T00:34:02.501Z,1027.06
2018-09-16T00:35:02.494Z,1027.04
2018-09-16T00:36:02.532Z,1027.05
2018-09-16T00:37:02.629Z,1027.05
2018-09-16T00:38:02.510Z,1027.03
2018-09-16T00:39:02.572Z,1027.02
2018-09-16T00:40:02.489Z,1026.98
2018-09-16T00:41:03.114Z,1027.01
2018-09-16T00:42:02.467Z,1026.99
2018-09-16T00:43:02.617Z,1026.95
2018-09-16T00:44:02.551Z,1026.94
2018-09-16T00:45:02.533Z,1026.92
2018-09-16T00:46:02.517Z,1026.88
2018-09-16T00:47:02.489Z,1026.89
2018-09-16T00:48:02.463Z,1026.87
2018-09-16T00:49:02.574Z,1026.88
2018-09-16T00:50:02.509Z,1026.84
2018-09-16T00:51:02.486Z,1026.86
2018-09-16T00:52:02.523Z,1026.85
2018-09-16T00:53:02.465Z,1026.8
2018-09-16T00:54:02.468Z,1026.81
2018-09-16T00:55:02.503Z,1026.78
2018-09-16T00:56:02.519Z,1026.82
2018-09-16T00:57:02.512Z,1026.8
2018-09-16T00:58:02.482Z,1026.8
2018-09-16T00:59:02.498Z,1026.8
2018-09-16T01:00:02.570Z,1026.83
2018-09-16T01:01:02.526Z,1026.82
2018-09-16T01:02:02.651Z,1026.81
2018-09-16T01:03:02.487Z,1026.81
2018-09-16T01:04:02.542Z,1026.81
2018-09-16T01:05:02.771Z,1026.79
2018-09-16T01:06:02.513Z,1026.81
2018-09-16T01:07:02.526Z,1026.77
2018-09-16T01:08:02.552Z,1026.76
2018-09-16T01:09:02.607Z,1026.77
2018-09-16T01:10:02.522Z,1026.81
2018-09-16T01:11:02.484Z,1026.77
2018-09-16T01:12:02.505Z,1026.79
2018-09-16T01:13:02.500Z,1026.79
2018-09-16T01:14:02.564Z,1026.77
2018-09-16T01:15:02.559Z,1026.72
2018-09-16T01:16:02.575Z,1026.72
2018-09-16T01:17:02.649Z,1026.7
2018-09-16T01:18:02.494Z,1026.7
2018-09-16T01:19:02.622Z,1026.7
2018-09-16T01:20:02.613Z,1026.68
2018-09-16T01:21:02.604Z,1026.64
2018-09-16T01:22:02.512Z,1026.63
2018-09-16T01:23:02.603Z,1026.61
2018-09-16T01:24:02.630Z,1026.59
2018-09-16T01:25:02.572Z,1026.6
2018-09-16T01:26:02.560Z,1026.54
2018-09-16T01:27:02.494Z,1026.52
2018-09-16T01:28:03.000Z,1026.54
2018-09-16T01:29:02.543Z,1026.51
2018-09-16T01:30:02.492Z,1026.5
2018-09-16T01:31:02.516Z,1026.46
2018-09-16T01:32:02.688Z,1026.44
2018-09-16T01:33:02.634Z,1026.45
2018-09-16T01:34:02.562Z,1026.42
2018-09-16T01:35:02.499Z,1026.39
2018-09-16T01:36:02.508Z,1026.42
2018-09-16T01:37:02.753Z,1026.38
2018-09-16T01:38:02.657Z,1026.36
2018-09-16T01:39:02.495Z,1026.36
2018-09-16T01:40:02.523Z,1026.32
2018-09-16T01:41:02.735Z,1026.35
2018-09-16T01:42:02.548Z,1026.36
2018-09-16T01:43:02.603Z,1026.32
2018-09-16T01:44:02.493Z,1026.36
2018-09-16T01:45:02.559Z,1026.36
2018-09-16T01:46:03.042Z,1026.33
2018-09-16T01:47:02.532Z,1026.33
2018-09-16T01:48:02.584Z,1026.29
2018-09-16T01:49:02.537Z,1026.28
2018-09-16T01:50:02.532Z,1026.29
2018-09-16T01:51:02.547Z,1026.3
2018-09-16T01:52:02.518Z,1026.28
2018-09-16T01:53:02.553Z,1026.29
2018-09-16T01:54:02.540Z,1026.27
2018-09-16T01:55:02.512Z,1026.29
2018-09-16T01:56:02.702Z,1026.28
2018-09-16T01:57:02.633Z,1026.27
2018-09-16T01:58:02.543Z,1026.24
2018-09-16T01:59:02.563Z,1026.26
2018-09-16T02:00:02.708Z,1026.22
2018-09-16T02:01:02.916Z,1026.18
2018-09-16T02:02:02.539Z,1026.16
2018-09-16T02:03:02.522Z,1026.15
2018-09-16T02:04:02.575Z,1026.12
2018-09-16T02:05:02.530Z,1026.17
2018-09-16T02:06:02.536Z,1026.18
2018-09-16T02:07:02.567Z,1026.21
2018-09-16T02:08:02.508Z,1026.2
2018-09-16T02:09:02.530Z,1026.16
2018-09-16T02:10:02.525Z,1026.25
2018-09-16T02:11:02.506Z,1026.25
2018-09-16T02:12:02.548Z,1026.25
2018-09-16T02:13:02.518Z,1026.3
2018-09-16T02:14:02.517Z,1026.28
2018-09-16T02:15:02.501Z,1026.35
2018-09-16T02:16:02.506Z,1026.35
2018-09-16T02:17:02.574Z,1026.41
2018-09-16T02:18:02.535Z,1026.41
2018-09-16T02:19:02.741Z,1026.42
2018-09-16T02:20:02.525Z,1026.38
2018-09-16T02:21:02.545Z,1026.4
2018-09-16T02:22:02.599Z,1026.41
2018-09-16T02:23:02.670Z,1026.37
2018-09-16T02:24:02.662Z,1026.35
2018-09-16T02:25:02.564Z,1026.35
2018-09-16T02:26:02.885Z,1026.36
2018-09-16T02:27:02.515Z,1026.38
2018-09-16T02:28:02.661Z,1026.34
2018-09-16T02:29:02.670Z,1026.31
2018-09-16T02:30:02.536Z,1026.29
2018-09-16T02:31:02.579Z,1026.27
2018-09-16T02:32:02.563Z,1026.27
2018-09-16T02:33:02.525Z,1026.26
2018-09-16T02:34:02.561Z,1026.27
2018-09-16T02:35:02.530Z,1026.24
2018-09-16T02:36:02.533Z,1026.27
2018-09-16T02:37:02.530Z,1026.23
2018-09-16T02:38:02.582Z,1026.23
2018-09-16T02:39:02.500Z,1026.18
2018-09-16T02:40:02.784Z,1026.16
2018-09-16T02:41:02.600Z,1026.14
2018-09-16T02:42:03.107Z,1026.16
2018-09-16T02:43:02.622Z,1026.15
2018-09-16T02:44:02.593Z,1026.17
2018-09-16T02:45:02.551Z,1026.2
2018-09-16T02:46:02.571Z,1026.25
2018-09-16T02:47:02.600Z,1026.21
2018-09-16T02:48:02.650Z,1026.21
2018-09-16T02:49:02.541Z,1026.23
2018-09-16T02:50:02.530Z,1026.23
2018-09-16T02:51:02.839Z,1026.2
2018-09-16T02:52:02.532Z,1026.24
2018-09-16T02:53:02.535Z,1026.22
2018-09-16T02:54:02.509Z,1026.21
2018-09-16T02:55:02.656Z,1026.2
2018-09-16T02:56:02.691Z,1026.23
2018-09-16T02:57:02.546Z,1026.2
2018-09-16T02:58:02.866Z,1026.22
2018-09-16T02:59:02.645Z,1026.22
2018-09-16T03:00:02.563Z,1026.24
2018-09-16T03:01:02.944Z,1026.26
2018-09-16T03:02:02.547Z,1026.24
2018-09-16T03:03:02.695Z,1026.23
2018-09-16T03:04:02.589Z,1026.24
2018-09-16T03:05:02.596Z,1026.24
2018-09-16T03:06:02.534Z,1026.28
2018-09-16T03:07:02.546Z,1026.25
2018-09-16T03:08:02.549Z,1026.27
2018-09-16T03:09:02.674Z,1026.26
2018-09-16T03:10:02.630Z,1026.25
2018-09-16T03:11:02.713Z,1026.24
2018-09-16T03:12:02.529Z,1026.27
2018-09-16T03:13:02.751Z,1026.27
2018-09-16T03:14:02.561Z,1026.25
2018-09-16T03:15:02.553Z,1026.2
2018-09-16T03:16:02.605Z,1026.21
2018-09-16T03:17:02.648Z,1026.21
2018-09-16T03:18:02.712Z,1026.22
2018-09-16T03:19:02.664Z,1026.19
2018-09-16T03:20:02.730Z,1026.19
2018-09-16T03:21:02.550Z,1026.2
2018-09-16T03:22:02.545Z,1026.18
2018-09-16T03:23:02.553Z,1026.19
2018-09-16T03:24:02.561Z,1026.16
2018-09-16T03:25:02.564Z,1026.15
2018-09-16T03:26:02.645Z,1026.16
2018-09-16T03:27:02.576Z,1026.18
2018-09-16T03:28:02.713Z,1026.09
2018-09-16T03:29:02.583Z,1026.17
2018-09-16T03:30:02.802Z,1026.13
2018-09-16T03:31:02.599Z,1026.12
2018-09-16T03:32:02.567Z,1026.13
2018-09-16T03:33:02.588Z,1026.14
2018-09-16T03:34:02.576Z,1026.15
2018-09-16T03:35:02.567Z,1026.15
2018-09-16T03:36:02.640Z,1026.14
2018-09-16T03:37:02.546Z,1026.15
2018-09-16T03:38:03.081Z,1026.15
2018-09-16T03:39:02.555Z,1026.15
2018-09-16T03:40:02.609Z,1026.12
2018-09-16T03:41:02.612Z,1026.17
2018-09-16T03:42:02.726Z,1026.12
2018-09-16T03:43:02.566Z,1026.19
2018-09-16T03:44:02.636Z,1026.18
2018-09-16T03:45:02.737Z,1026.19
2018-09-16T03:46:02.855Z,1026.17
2018-09-16T03:47:02.666Z,1026.17
2018-09-16T03:48:02.563Z,1026.17
2018-09-16T03:49:08.563Z,1026.23
2018-09-16T03:50:02.577Z,1026.2
2018-09-16T03:51:02.600Z,1026.22
2018-09-16T03:52:02.638Z,1026.23
2018-09-16T03:53:02.708Z,1026.24
2018-09-16T03:54:02.724Z,1026.22
2018-09-16T03:55:02.603Z,1026.23
2018-09-16T03:56:02.674Z,1026.25
2018-09-16T03:57:02.568Z,1026.26
2018-09-16T03:58:02.568Z,1026.25
2018-09-16T03:59:02.560Z,1026.24
2018-09-16T04:00:02.972Z,1026.25
2018-09-16T04:01:02.640Z,1026.24
2018-09-16T04:02:02.583Z,1026.24
2018-09-16T04:03:02.716Z,1026.24
2018-09-16T04:04:02.764Z,1026.22
2018-09-16T04:05:02.586Z,1026.26
2018-09-16T04:06:02.564Z,1026.27
2018-09-16T04:07:02.715Z,1026.27
2018-09-16T04:08:02.743Z,1026.24
2018-09-16T04:09:02.557Z,1026.24
2018-09-16T04:10:02.572Z,1026.24
2018-09-16T04:11:02.600Z,1026.25
2018-09-16T04:12:02.564Z,1026.21
2018-09-16T04:13:02.599Z,1026.23
2018-09-16T04:14:02.908Z,1026.23
2018-09-16T04:15:02.600Z,1026.23
2018-09-16T04:16:02.628Z,1026.21
2018-09-16T04:17:03.338Z,1026.2
2018-09-16T04:18:02.563Z,1026.21
2018-09-16T04:19:02.597Z,1026.19
2018-09-16T04:20:02.596Z,1026.19
2018-09-16T04:21:02.735Z,1026.16
2018-09-16T04:22:02.655Z,1026.14
2018-09-16T04:23:02.607Z,1026.13
2018-09-16T04:24:02.606Z,1026.12
2018-09-16T04:25:02.595Z,1026.12
2018-09-16T04:26:02.642Z,1026.15
2018-09-16T04:27:02.626Z,1026.14
2018-09-16T04:28:02.907Z,1026.13
2018-09-16T04:29:02.664Z,1026.12
2018-09-16T04:30:02.607Z,1026.12
2018-09-16T04:31:02.592Z,1026.09
2018-09-16T04:32:03.162Z,1026.08
2018-09-16T04:33:02.747Z,1026.04
2018-09-16T04:34:02.579Z,1026.07
2018-09-16T04:35:02.600Z,1026.03
2018-09-16T04:36:02.652Z,1026.07
2018-09-16T04:37:02.618Z,1026.08
2018-09-16T04:38:02.688Z,1026.07
2018-09-16T04:39:02.980Z,1026.02
2018-09-16T04:40:02.662Z,1026.02
2018-09-16T04:41:02.586Z,1026.03
2018-09-16T04:42:02.633Z,1026.01
2018-09-16T04:43:02.588Z,1025.99
2018-09-16T04:44:02.722Z,1026.01
2018-09-16T04:45:02.587Z,1026.02
2018-09-16T04:46:02.583Z,1025.97
2018-09-16T04:47:02.733Z,1026.02
2018-09-16T04:48:02.588Z,1026.04
2018-09-16T04:49:02.732Z,1026.03
2018-09-16T04:50:02.947Z,1026.05
2018-09-16T04:51:02.582Z,1026.04
2018-09-16T04:52:02.616Z,1026.08
2018-09-16T04:53:02.596Z,1026.03
2018-09-16T04:54:02.654Z,1026.03
2018-09-16T04:55:02.615Z,1025.99
2018-09-16T04:56:02.713Z,1026.01
2018-09-16T04:57:02.614Z,1025.96
2018-09-16T04:58:02.594Z,1025.97
2018-09-16T04:59:02.649Z,1026.01
2018-09-16T05:00:02.605Z,1026
2018-09-16T05:01:02.736Z,1026
2018-09-16T05:02:02.619Z,1026.03
2018-09-16T05:03:02.604Z,1026.03
2018-09-16T05:04:02.943Z,1026.03
2018-09-16T05:05:02.604Z,1026.06
2018-09-16T05:06:02.622Z,1026.02
2018-09-16T05:07:02.589Z,1026.01
2018-09-16T05:08:02.747Z,1026.02
2018-09-16T05:09:02.655Z,1026.05
2018-09-16T05:10:02.723Z,1026.03
2018-09-16T05:11:02.615Z,1025.99
2018-09-16T05:12:02.702Z,1026
2018-09-16T05:13:02.630Z,1026.01
2018-09-16T05:14:03.106Z,1025.99
2018-09-16T05:15:03.024Z,1026
2018-09-16T05:16:02.752Z,1025.96
2018-09-16T05:17:02.599Z,1025.98
2018-09-16T05:18:03.355Z,1025.96
2018-09-16T05:19:02.944Z,1026
2018-09-16T05:20:02.959Z,1025.97
2018-09-16T05:21:02.603Z,1025.99
2018-09-16T05:22:02.747Z,1025.98
2018-09-16T05:23:02.656Z,1026
2018-09-16T05:24:02.982Z,1026
2018-09-16T05:25:02.704Z,1026.01
2018-09-16T05:26:02.685Z,1026.04
2018-09-16T05:27:02.618Z,1026.04
2018-09-16T05:28:02.722Z,1026
2018-09-16T05:29:02.689Z,1025.99
2018-09-16T05:30:02.718Z,1025.99
2018-09-16T05:31:03.091Z,1026.01
2018-09-16T05:32:02.660Z,1026
2018-09-16T05:33:02.633Z,1025.97
2018-09-16T05:34:02.633Z,1025.99
2018-09-16T05:35:02.679Z,1025.97
2018-09-16T05:36:02.699Z,1025.97
2018-09-16T05:37:02.666Z,1025.98
2018-09-16T05:38:02.666Z,1026
2018-09-16T05:39:03.115Z,1026
2018-09-16T05:40:02.633Z,1025.99
2018-09-16T05:41:02.846Z,1026.02
2018-09-16T05:42:02.637Z,1026
2018-09-16T05:43:02.676Z,1025.96
2018-09-16T05:44:02.628Z,1025.95
2018-09-16T05:45:03.027Z,1026
2018-09-16T05:46:02.621Z,1025.99
2018-09-16T05:47:02.862Z,1026
2018-09-16T05:48:03.246Z,1026.02
2018-09-16T05:49:02.766Z,1026
2018-09-16T05:50:02.646Z,1026.02
2018-09-16T05:51:02.760Z,1025.98
2018-09-16T05:52:02.956Z,1026.01
2018-09-16T05:53:02.906Z,1025.99
2018-09-16T05:54:02.887Z,1025.96
2018-09-16T05:55:02.673Z,1025.99
2018-09-16T05:56:02.762Z,1025.99
2018-09-16T05:57:02.795Z,1026.01
2018-09-16T05:58:02.624Z,1026
2018-09-16T05:59:02.750Z,1025.98
2018-09-16T06:00:02.623Z,1025.96
2018-09-16T06:01:02.679Z,1025.94
2018-09-16T06:02:02.637Z,1025.95
2018-09-16T06:03:02.763Z,1025.95
2018-09-16T06:04:02.878Z,1025.93
2018-09-16T06:05:02.780Z,1025.96
2018-09-16T06:06:02.734Z,1025.94
2018-09-16T06:07:02.911Z,1025.91
2018-09-16T06:08:02.973Z,1025.95
2018-09-16T06:09:02.621Z,1025.91
2018-09-16T06:10:02.637Z,1025.95
2018-09-16T06:11:02.656Z,1025.93
2018-09-16T06:12:03.003Z,1025.96
2018-09-16T06:13:02.662Z,1025.9
2018-09-16T06:14:03.323Z,1025.89
2018-09-16T06:15:02.626Z,1025.89
2018-09-16T06:16:02.656Z,1025.86
2018-09-16T06:17:02.618Z,1025.89
2018-09-16T06:18:03.048Z,1025.83
2018-09-16T06:19:02.637Z,1025.84
2018-09-16T06:20:02.652Z,1025.76
2018-09-16T06:21:02.650Z,1025.75
2018-09-16T06:22:02.751Z,1025.77
2018-09-16T06:23:02.660Z,1025.75
2018-09-16T06:24:02.631Z,1025.7
2018-09-16T06:25:02.838Z,1025.77
2018-09-16T06:26:02.736Z,1025.72
2018-09-16T06:27:02.673Z,1025.71
2018-09-16T06:28:02.647Z,1025.67
2018-09-16T06:29:03.229Z,1025.67
2018-09-16T06:30:03.156Z,1025.71
2018-09-16T06:31:02.716Z,1025.72
2018-09-16T06:32:03.039Z,1025.69
2018-09-16T06:33:02.656Z,1025.67
2018-09-16T06:34:02.672Z,1025.69
2018-09-16T06:35:02.952Z,1025.7
2018-09-16T06:36:03.267Z,1025.67
2018-09-16T06:37:02.671Z,1025.7
2018-09-16T06:38:02.848Z,1025.68
2018-09-16T06:39:02.761Z,1025.67
2018-09-16T06:40:02.672Z,1025.66
2018-09-16T06:41:02.661Z,1025.69
2018-09-16T06:42:03.119Z,1025.67
2018-09-16T06:43:02.647Z,1025.68
2018-09-16T06:44:02.629Z,1025.67
2018-09-16T06:45:02.680Z,1025.63
2018-09-16T06:46:02.664Z,1025.63
2018-09-16T06:47:02.948Z,1025.61
2018-09-16T06:48:02.689Z,1025.64
2018-09-16T06:49:02.729Z,1025.61
2018-09-16T06:50:02.639Z,1025.61
2018-09-16T06:51:03.036Z,1025.61
2018-09-16T06:52:03.132Z,1025.67
2018-09-16T06:53:02.817Z,1025.66
2018-09-16T06:54:02.701Z,1025.64
2018-09-16T06:55:02.679Z,1025.66
2018-09-16T06:56:02.639Z,1025.65
2018-09-16T06:57:02.651Z,1025.65
2018-09-16T06:58:03.116Z,1025.62
2018-09-16T06:59:02.685Z,1025.66
2018-09-16T07:00:02.659Z,1025.65
2018-09-16T07:01:02.650Z,1025.64
2018-09-16T07:02:02.650Z,1025.67
2018-09-16T07:03:02.719Z,1025.66
2018-09-16T07:04:02.751Z,1025.68
2018-09-16T07:05:03.162Z,1025.67
2018-09-16T07:06:02.671Z,1025.66
2018-09-16T07:07:02.718Z,1025.69
2018-09-16T07:08:02.641Z,1025.67
2018-09-16T07:09:03.077Z,1025.7
2018-09-16T07:10:02.889Z,1025.69
2018-09-16T07:11:02.725Z,1025.69
2018-09-16T07:12:02.903Z,1025.75
2018-09-16T07:13:03.123Z,1025.73
2018-09-16T07:14:02.697Z,1025.72
2018-09-16T07:15:03.142Z,1025.75
2018-09-16T07:16:02.717Z,1025.82
2018-09-16T07:17:03.041Z,1025.84
2018-09-16T07:18:02.772Z,1025.81
2018-09-16T07:19:02.698Z,1025.84
2018-09-16T07:20:02.813Z,1025.86
2018-09-16T07:21:02.959Z,1025.86
2018-09-16T07:22:02.698Z,1025.85
2018-09-16T07:23:02.727Z,1025.85
2018-09-16T07:24:02.857Z,1025.86
2018-09-16T07:25:02.818Z,1025.86
2018-09-16T07:26:02.649Z,1025.86
2018-09-16T07:27:02.683Z,1025.85
2018-09-16T07:28:02.736Z,1025.86
2018-09-16T07:29:02.686Z,1025.86
2018-09-16T07:30:02.766Z,1025.85
2018-09-16T07:31:02.673Z,1025.84
2018-09-16T07:32:03.092Z,1025.82
2018-09-16T07:33:03.056Z,1025.82
2018-09-16T07:34:03.064Z,1025.76
2018-09-16T07:35:02.723Z,1025.79
2018-09-16T07:36:02.680Z,1025.8
2018-09-16T07:37:02.666Z,1025.8
2018-09-16T07:38:03.510Z,1025.77
2018-09-16T07:39:02.747Z,1025.78
2018-09-16T07:40:02.674Z,1025.79
2018-09-16T07:41:02.836Z,1025.81
2018-09-16T07:42:03.515Z,1025.77
2018-09-16T07:43:03.022Z,1025.75
2018-09-16T07:44:02.781Z,1025.73
2018-09-16T07:45:03.031Z,1025.7
2018-09-16T07:46:03.040Z,1025.72
2018-09-16T07:47:02.821Z,1025.69
2018-09-16T07:48:02.698Z,1025.72
2018-09-16T07:49:02.706Z,1025.72
2018-09-16T07:50:02.958Z,1025.7
2018-09-16T07:51:02.693Z,1025.7
2018-09-16T07:52:02.696Z,1025.68
2018-09-16T07:53:02.805Z,1025.7
2018-09-16T07:54:02.987Z,1025.71
2018-09-16T07:55:02.885Z,1025.68
2018-09-16T07:56:02.732Z,1025.67
2018-09-16T07:57:02.715Z,1025.67
2018-09-16T07:58:02.715Z,1025.68
2018-09-16T07:59:02.737Z,1025.68
2018-09-16T08:00:02.752Z,1025.66
2018-09-16T08:01:02.994Z,1025.68
2018-09-16T08:02:02.955Z,1025.68
2018-09-16T08:03:02.701Z,1025.72
2018-09-16T08:04:02.676Z,1025.68
2018-09-16T08:05:02.729Z,1025.68
2018-09-16T08:06:02.759Z,1025.7
2018-09-16T08:07:02.757Z,1025.67
2018-09-16T08:08:02.794Z,1025.7
2018-09-16T08:09:02.812Z,1025.68
2018-09-16T08:10:02.687Z,1025.69
2018-09-16T08:11:02.695Z,1025.66
2018-09-16T08:12:02.719Z,1025.64
2018-09-16T08:13:02.764Z,1025.62
2018-09-16T08:14:02.796Z,1025.67
2018-09-16T08:15:02.782Z,1025.67
2018-09-16T08:16:02.841Z,1025.7
2018-09-16T08:17:02.736Z,1025.68
2018-09-16T08:18:02.743Z,1025.66
2018-09-16T08:19:02.712Z,1025.68
2018-09-16T08:20:02.759Z,1025.69
2018-09-16T08:21:03.135Z,1025.7
2018-09-16T08:22:02.705Z,1025.69
2018-09-16T08:23:02.750Z,1025.71
2018-09-16T08:24:02.705Z,1025.69
2018-09-16T08:25:03.004Z,1025.72
2018-09-16T08:26:02.749Z,1025.72
2018-09-16T08:27:02.725Z,1025.73
2018-09-16T08:28:02.713Z,1025.69
2018-09-16T08:29:03.034Z,1025.68
2018-09-16T08:30:02.787Z,1025.68
2018-09-16T08:35:03.100Z,1025.67
2018-09-16T08:36:02.919Z,1025.69
2018-09-16T08:37:03.315Z,1025.66
2018-09-16T08:38:03.361Z,1025.63
2018-09-16T08:39:03.074Z,1025.63
2018-09-16T08:40:03.260Z,1025.63
2018-09-16T08:41:02.905Z,1025.6
2018-09-16T08:42:02.910Z,1025.61
2018-09-16T08:43:02.919Z,1025.59
2018-09-16T08:44:03.131Z,1025.54
2018-09-16T08:45:03.112Z,1025.58
2018-09-16T08:46:02.943Z,1025.58
2018-09-16T08:47:02.976Z,1025.59
2018-09-16T08:48:02.960Z,1025.59
2018-09-16T08:49:03.091Z,1025.49
2018-09-16T08:50:03.224Z,1025.52
2018-09-16T08:51:03.181Z,1025.45
2018-09-16T08:52:03.157Z,1025.49
2018-09-16T08:53:02.913Z,1025.46
2018-09-16T08:54:02.910Z,1025.49
2018-09-16T08:55:03.052Z,1025.44
2018-09-16T08:56:03.046Z,1025.45
2018-09-16T08:57:03.084Z,1025.43
2018-09-16T08:58:03.107Z,1025.41
2018-09-16T09:00:33.097Z,1025.4
2018-09-16T09:00:40.706Z,1025.37
2018-09-16T09:01:40.759Z,1025.39
2018-09-16T09:02:40.634Z,1025.36
2018-09-16T09:03:40.586Z,1025.31
2018-09-16T09:04:40.661Z,1025.31
2018-09-16T09:05:41.113Z,1025.28
2018-09-16T09:06:40.632Z,1025.33
2018-09-16T09:07:40.595Z,1025.3
2018-09-16T09:11:40.322Z,1025.31
2018-09-16T09:12:40.760Z,1025.25
2018-09-16T09:13:40.637Z,1025.24
2018-09-16T09:14:41.433Z,1025.24
2018-09-16T09:15:40.644Z,1025.26
2018-09-16T09:16:40.617Z,1025.25
2018-09-16T09:17:40.786Z,1025.21
2018-09-16T09:18:40.624Z,1025.25
2018-09-16T09:19:40.643Z,1025.22
2018-09-16T09:20:40.712Z,1025.17
2018-09-16T09:21:40.679Z,1025.11
2018-09-16T09:22:41.265Z,1025.09
2018-09-16T09:23:40.606Z,1025.09
2018-09-16T09:24:40.613Z,1025.08
2018-09-16T09:25:40.603Z,1025.09
2018-09-16T09:26:40.859Z,1025.08
2018-09-16T09:27:40.670Z,1025.05
2018-09-16T09:28:40.724Z,1025.06
2018-09-16T09:29:40.601Z,1025.01
2018-09-16T09:30:40.689Z,1024.98
2018-09-16T09:33:40.966Z,1024.95
2018-09-16T09:34:40.636Z,1024.92
2018-09-16T09:35:40.668Z,1024.9
2018-09-16T09:39:40.646Z,1024.87
2018-09-16T09:40:40.765Z,1024.86
2018-09-16T09:41:40.643Z,1024.85
2018-09-16T09:42:40.688Z,1024.88
2018-09-16T09:43:40.613Z,1024.82
2018-09-16T09:44:40.909Z,1024.84
2018-09-16T09:45:40.673Z,1024.79
2018-09-16T09:46:40.937Z,1024.77
2018-09-16T09:47:40.671Z,1024.74
2018-09-16T09:48:40.731Z,1024.72
2018-09-16T09:49:40.631Z,1024.72
2018-09-16T09:50:40.620Z,1024.74
2018-09-16T09:51:40.692Z,1024.73
2018-09-16T09:52:40.621Z,1024.71
2018-09-16T09:53:40.749Z,1024.7
2018-09-16T09:54:40.689Z,1024.71
2018-09-16T09:55:40.638Z,1024.65
2018-09-16T09:56:40.612Z,1024.65
2018-09-16T09:57:41.101Z,1024.62
2018-09-16T09:58:41.271Z,1024.58
2018-09-16T09:59:40.608Z,1024.58
2018-09-16T10:00:40.662Z,1024.55
2018-09-16T10:01:40.654Z,1024.54
2018-09-16T10:02:40.714Z,1024.5
2018-09-16T10:03:41.039Z,1024.51
2018-09-16T10:04:40.757Z,1024.44
2018-09-16T10:05:41.058Z,1024.39
2018-09-16T10:06:40.692Z,1024.37
2018-09-16T10:07:40.803Z,1024.35
2018-09-16T10:08:40.698Z,1024.32
2018-09-16T10:09:40.771Z,1024.26
2018-09-16T10:10:40.979Z,1024.26
2018-09-16T10:11:40.688Z,1024.24
2018-09-16T10:12:40.999Z,1024.21
2018-09-16T10:13:40.666Z,1024.17
2018-09-16T10:14:40.547Z,1024.11
2018-09-16T10:15:41.578Z,1024.16
2018-09-16T10:16:40.655Z,1024.19
2018-09-16T10:17:40.590Z,1024.18
2018-09-16T10:18:40.655Z,1024.14
2018-09-16T10:19:40.608Z,1024.1
2018-09-16T10:20:40.629Z,1024.05
2018-09-16T10:21:40.613Z,1024.08
2018-09-16T10:22:40.752Z,1024.01
2018-09-16T10:23:40.640Z,1024
2018-09-16T10:24:40.610Z,1023.99
2018-09-16T10:25:40.590Z,1023.96
2018-09-16T10:26:40.584Z,1023.97
2018-09-16T10:27:40.585Z,1023.93
2018-09-16T10:28:40.735Z,1023.88
2018-09-16T10:29:41.126Z,1023.91
2018-09-16T10:30:40.623Z,1023.89
2018-09-16T10:31:41.031Z,1023.92
2018-09-16T10:32:40.592Z,1023.92
2018-09-16T10:33:41.022Z,1023.92
2018-09-16T10:34:40.774Z,1023.87
2018-09-16T10:35:40.836Z,1023.9
2018-09-16T10:36:40.742Z,1023.92
2018-09-16T10:37:40.675Z,1023.93
2018-09-16T10:38:47.462Z,1023.92
2018-09-16T10:39:41.257Z,1023.87
2018-09-16T10:40:40.671Z,1023.86
2018-09-16T10:41:40.578Z,1023.88
2018-09-16T10:42:40.634Z,1023.81
2018-09-16T10:43:40.992Z,1023.84
2018-09-16T10:44:49.900Z,1023.8
2018-09-16T10:45:40.705Z,1023.74
2018-09-16T10:46:40.593Z,1023.74
2018-09-16T10:47:40.611Z,1023.72
2018-09-16T10:48:40.596Z,1023.76
2018-09-16T10:49:40.582Z,1023.75
2018-09-16T10:50:40.589Z,1023.75
2018-09-16T10:51:45.831Z,1023.72
2018-09-16T10:52:40.615Z,1023.74
2018-09-16T10:53:40.598Z,1023.75
2018-09-16T10:54:40.560Z,1023.67
2018-09-16T10:55:42.991Z,1023.61
2018-09-16T10:56:40.569Z,1023.6
2018-09-16T10:57:40.618Z,1023.61
2018-09-16T10:58:40.579Z,1023.57
2018-09-16T10:59:40.616Z,1023.53
2018-09-16T11:00:40.589Z,1023.54
2018-09-16T11:01:40.572Z,1023.53
2018-09-16T11:02:40.595Z,1023.53
2018-09-16T11:03:40.603Z,1023.53
2018-09-16T11:04:40.950Z,1023.51
2018-09-16T11:05:41.083Z,1023.5
2018-09-16T11:06:41.148Z,1023.51
2018-09-16T11:07:40.840Z,1023.49
2018-09-16T11:08:40.614Z,1023.47
2018-09-16T11:09:41.202Z,1023.39
2018-09-16T11:10:40.786Z,1023.38
2018-09-16T11:11:40.603Z,1023.33
2018-09-16T11:12:41.334Z,1023.33
2018-09-16T11:13:40.585Z,1023.29
2018-09-16T11:14:41.022Z,1023.31
2018-09-16T11:15:40.910Z,1023.31
2018-09-16T11:16:40.744Z,1023.31
2018-09-16T11:17:40.687Z,1023.26
2018-09-16T11:18:40.668Z,1023.25
2018-09-16T11:19:46.507Z,1023.27
2018-09-16T11:20:43.588Z,1023.24
2018-09-16T11:21:41.495Z,1023.18
2018-09-16T11:22:40.626Z,1023.21
2018-09-16T11:23:40.582Z,1023.23
2018-09-16T11:24:40.610Z,1023.18
2018-09-16T11:25:40.590Z,1023.19
2018-09-16T11:26:40.739Z,1023.15
2018-09-16T11:27:40.652Z,1023.18
2018-09-16T11:28:40.633Z,1023.12
2018-09-16T11:29:40.909Z,1023.12
2018-09-16T11:30:40.623Z,1023.11
2018-09-16T11:31:40.606Z,1023.1
2018-09-16T11:32:40.594Z,1023.11
2018-09-16T11:33:40.715Z,1023.1
2018-09-16T11:34:40.608Z,1023.06
2018-09-16T11:35:40.786Z,1023.11
2018-09-16T11:36:40.757Z,1023.09
2018-09-16T11:37:40.704Z,1023.07
2018-09-16T11:38:40.601Z,1023.04
2018-09-16T11:39:40.616Z,1023
2018-09-16T11:40:40.614Z,1023.02
2018-09-16T11:41:40.581Z,1023.01
2018-09-16T11:42:40.715Z,1022.99
2018-09-16T11:43:40.586Z,1023
2018-09-16T11:44:40.716Z,1022.99
2018-09-16T11:45:40.612Z,1022.94
2018-09-16T11:46:40.791Z,1022.95
2018-09-16T11:47:40.559Z,1022.99
2018-09-16T11:48:40.713Z,1022.96
2018-09-16T11:49:40.607Z,1022.95
2018-09-16T11:50:40.744Z,1022.95
2018-09-16T11:51:41.235Z,1022.96
2018-09-16T11:52:40.611Z,1022.95
2018-09-16T11:53:40.712Z,1022.9
2018-09-16T11:54:40.971Z,1022.94
2018-09-16T11:55:40.675Z,1022.98
2018-09-16T11:56:40.883Z,1022.92
2018-09-16T11:57:40.894Z,1022.91
2018-09-16T11:58:40.695Z,1022.89
2018-09-16T11:59:40.707Z,1022.86
2018-09-16T12:00:41.417Z,1022.87
2018-09-16T12:01:40.671Z,1022.85
2018-09-16T12:02:41.019Z,1022.91
2018-09-16T12:03:41.845Z,1022.87
2018-09-16T12:04:41.037Z,1022.85
2018-09-16T12:05:40.746Z,1022.84
2018-09-16T12:06:40.750Z,1022.86
2018-09-16T12:07:40.745Z,1022.92
2018-09-16T12:08:41.675Z,1022.92
2018-09-16T12:09:40.610Z,1022.95
2018-09-16T12:10:40.672Z,1022.98
2018-09-16T12:11:40.740Z,1022.96
2018-09-16T12:12:40.670Z,1022.94
2018-09-16T12:13:41.708Z,1022.95
2018-09-16T12:14:40.571Z,1022.95
2018-09-16T12:15:40.702Z,1022.87
2018-09-16T12:16:40.873Z,1022.86
2018-09-16T12:17:40.712Z,1022.86
2018-09-16T12:18:40.599Z,1022.79
2018-09-16T12:19:40.730Z,1022.8
2018-09-16T12:20:40.740Z,1022.81
2018-09-16T12:21:40.572Z,1022.82